sensor_id;sensor_type;location;lat;lon;timestamp;P1;durP1;ratioP1;P2;durP2;ratioP2
13455;SDS011;6800;50.940;6.940;2022-09-24T00:01:17;10.13;;;7.10;;
13455;SDS011;6800;50.940;6.940;2022-09-24T00:05:19;7.67;;;6.30;;
13455;SDS011;6800;50.940;6.940;2022-09-24T00:09:20;9.67;;;7.60;;
13455;SDS011;6800;50.940;6.940;2022-09-24T00:13:20;10.67;;;6.90;;
13455;SDS011;6800;50.940;6.940;2022-09-24T00:17:21;9.47;;;5.63;;
13455;SDS011;6800;50.940;6.940;2022-09-24T00:25:23;8.10;;;6.43;;
13455;SDS011;6800;50.940;6.940;2022-09-24T00:29:42;7.43;;;6.53;;
13455;SDS011;6800;50.940;6.940;2022-09-24T00:33:43;7.03;;;6.27;;
13455;SDS011;6800;50.940;6.940;2022-09-24T00:37:43;8.30;;;7.27;;
13455;SDS011;6800;50.940;6.940;2022-09-24T00:41:44;8.10;;;6.30;;
13455;SDS011;6800;50.940;6.940;2022-09-24T00:45:46;8.03;;;5.83;;
13455;SDS011;6800;50.940;6.940;2022-09-24T00:49:47;7.80;;;6.47;;
13455;SDS011;6800;50.940;6.940;2022-09-24T00:53:50;9.20;;;7.87;;
13455;SDS011;6800;50.940;6.940;2022-09-24T00:57:55;9.33;;;7.70;;
13455;SDS011;6800;50.940;6.940;2022-09-24T01:01:57;12.33;;;9.57;;
13455;SDS011;6800;50.940;6.940;2022-09-24T01:05:58;10.00;;;7.63;;
13455;SDS011;6800;50.940;6.940;2022-09-24T01:09:58;10.37;;;8.50;;
13455;SDS011;6800;50.940;6.940;2022-09-24T01:14:06;7.90;;;7.10;;
13455;SDS011;6800;50.940;6.940;2022-09-24T01:18:15;8.07;;;7.13;;
13455;SDS011;6800;50.940;6.940;2022-09-24T01:27:10;7.70;;;6.20;;
13455;SDS011;6800;50.940;6.940;2022-09-24T01:31:25;9.07;;;6.47;;
13455;SDS011;6800;50.940;6.940;2022-09-24T01:35:33;7.97;;;7.17;;
13455;SDS011;6800;50.940;6.940;2022-09-24T01:39:36;7.53;;;5.83;;
13455;SDS011;6800;50.940;6.940;2022-09-24T01:43:37;9.67;;;7.10;;
13455;SDS011;6800;50.940;6.940;2022-09-24T01:47:39;10.17;;;7.20;;
13455;SDS011;6800;50.940;6.940;2022-09-24T01:55:50;7.90;;;6.80;;
13455;SDS011;6800;50.940;6.940;2022-09-24T02:00:07;9.23;;;6.70;;
13455;SDS011;6800;50.940;6.940;2022-09-24T02:04:11;7.90;;;6.33;;
13455;SDS011;6800;50.940;6.940;2022-09-24T02:08:19;7.00;;;6.30;;
13455;SDS011;6800;50.940;6.940;2022-09-24T02:12:24;7.80;;;6.43;;
13455;SDS011;6800;50.940;6.940;2022-09-24T02:16:39;8.60;;;6.80;;
13455;SDS011;6800;50.940;6.940;2022-09-24T02:20:44;7.23;;;6.47;;
13455;SDS011;6800;50.940;6.940;2022-09-24T02:24:47;9.87;;;6.53;;
13455;SDS011;6800;50.940;6.940;2022-09-24T02:28:50;7.77;;;6.93;;
13455;SDS011;6800;50.940;6.940;2022-09-24T02:32:51;10.37;;;7.53;;
13455;SDS011;6800;50.940;6.940;2022-09-24T02:36:54;8.70;;;6.80;;
13455;SDS011;6800;50.940;6.940;2022-09-24T02:40:58;7.83;;;6.30;;
13455;SDS011;6800;50.940;6.940;2022-09-24T02:44:58;8.37;;;6.80;;
13455;SDS011;6800;50.940;6.940;2022-09-24T02:48:59;7.13;;;6.33;;
13455;SDS011;6800;50.940;6.940;2022-09-24T02:52:59;9.57;;;6.47;;
13455;SDS011;6800;50.940;6.940;2022-09-24T02:57:00;9.73;;;7.13;;
13455;SDS011;6800;50.940;6.940;2022-09-24T03:01:00;7.67;;;6.53;;
13455;SDS011;6800;50.940;6.940;2022-09-24T03:05:00;8.23;;;6.07;;
13455;SDS011;6800;50.940;6.940;2022-09-24T03:09:00;9.60;;;6.50;;
13455;SDS011;6800;50.940;6.940;2022-09-24T03:13:03;7.60;;;6.43;;
13455;SDS011;6800;50.940;6.940;2022-09-24T03:17:03;10.00;;;6.87;;
13455;SDS011;6800;50.940;6.940;2022-09-24T03:21:05;9.27;;;7.83;;
13455;SDS011;6800;50.940;6.940;2022-09-24T03:25:10;9.53;;;7.40;;
13455;SDS011;6800;50.940;6.940;2022-09-24T03:29:10;10.27;;;6.80;;
13455;SDS011;6800;50.940;6.940;2022-09-24T03:33:10;8.43;;;6.17;;
13455;SDS011;6800;50.940;6.940;2022-09-24T03:37:10;7.77;;;6.37;;
13455;SDS011;6800;50.940;6.940;2022-09-24T03:41:11;6.97;;;6.07;;
13455;SDS011;6800;50.940;6.940;2022-09-24T03:45:12;8.27;;;6.30;;
13455;SDS011;6800;50.940;6.940;2022-09-24T03:49:12;6.77;;;6.07;;
13455;SDS011;6800;50.940;6.940;2022-09-24T03:53:13;7.57;;;6.73;;
13455;SDS011;6800;50.940;6.940;2022-09-24T03:57:15;8.27;;;7.47;;
13455;SDS011;6800;50.940;6.940;2022-09-24T04:01:15;11.30;;;7.57;;
13455;SDS011;6800;50.940;6.940;2022-09-24T04:05:19;7.77;;;6.80;;
13455;SDS011;6800;50.940;6.940;2022-09-24T04:09:20;8.90;;;6.87;;
13455;SDS011;6800;50.940;6.940;2022-09-24T04:13:20;9.10;;;6.50;;
13455;SDS011;6800;50.940;6.940;2022-09-24T04:17:20;9.60;;;6.88;;
13455;SDS011;6800;50.940;6.940;2022-09-24T04:21:20;8.27;;;7.00;;
13455;SDS011;6800;50.940;6.940;2022-09-24T04:25:21;11.00;;;7.20;;
13455;SDS011;6800;50.940;6.940;2022-09-24T04:29:22;9.37;;;6.90;;
13455;SDS011;6800;50.940;6.940;2022-09-24T04:33:22;7.67;;;6.97;;
13455;SDS011;6800;50.940;6.940;2022-09-24T04:37:23;8.93;;;6.77;;
13455;SDS011;6800;50.940;6.940;2022-09-24T04:41:23;7.63;;;6.50;;
13455;SDS011;6800;50.940;6.940;2022-09-24T04:45:23;7.03;;;6.27;;
13455;SDS011;6800;50.940;6.940;2022-09-24T04:49:25;11.10;;;6.93;;
13455;SDS011;6800;50.940;6.940;2022-09-24T04:53:26;7.67;;;6.60;;
13455;SDS011;6800;50.940;6.940;2022-09-24T04:57:27;7.17;;;6.47;;
13455;SDS011;6800;50.940;6.940;2022-09-24T05:01:34;6.70;;;6.00;;
13455;SDS011;6800;50.940;6.940;2022-09-24T05:05:35;7.33;;;6.63;;
13455;SDS011;6800;50.940;6.940;2022-09-24T05:09:35;7.97;;;6.20;;
13455;SDS011;6800;50.940;6.940;2022-09-24T05:13:36;7.10;;;6.40;;
13455;SDS011;6800;50.940;6.940;2022-09-24T05:17:37;6.80;;;6.20;;
13455;SDS011;6800;50.940;6.940;2022-09-24T05:21:38;6.90;;;6.30;;
13455;SDS011;6800;50.940;6.940;2022-09-24T05:25:38;7.07;;;6.45;;
13455;SDS011;6800;50.940;6.940;2022-09-24T05:29:58;7.60;;;6.37;;
13455;SDS011;6800;50.940;6.940;2022-09-24T05:34:00;6.87;;;6.27;;
13455;SDS011;6800;50.940;6.940;2022-09-24T05:38:00;7.17;;;6.43;;
13455;SDS011;6800;50.940;6.940;2022-09-24T05:42:00;9.53;;;6.37;;
13455;SDS011;6800;50.940;6.940;2022-09-24T05:46:04;6.53;;;5.93;;
13455;SDS011;6800;50.940;6.940;2022-09-24T05:50:04;8.67;;;6.63;;
13455;SDS011;6800;50.940;6.940;2022-09-24T05:54:05;7.90;;;5.83;;
13455;SDS011;6800;50.940;6.940;2022-09-24T05:58:10;8.57;;;6.23;;
13455;SDS011;6800;50.940;6.940;2022-09-24T06:02:10;7.57;;;5.87;;
13455;SDS011;6800;50.940;6.940;2022-09-24T06:06:10;7.40;;;6.47;;
13455;SDS011;6800;50.940;6.940;2022-09-24T06:10:11;7.87;;;7.07;;
13455;SDS011;6800;50.940;6.940;2022-09-24T06:14:11;8.93;;;6.63;;
13455;SDS011;6800;50.940;6.940;2022-09-24T06:18:12;7.30;;;6.50;;
13455;SDS011;6800;50.940;6.940;2022-09-24T06:22:15;6.97;;;5.90;;
13455;SDS011;6800;50.940;6.940;2022-09-24T06:26:18;7.67;;;6.33;;
13455;SDS011;6800;50.940;6.940;2022-09-24T06:30:19;7.90;;;6.20;;
13455;SDS011;6800;50.940;6.940;2022-09-24T06:34:19;9.87;;;7.13;;
13455;SDS011;6800;50.940;6.940;2022-09-24T06:38:19;6.97;;;6.10;;
13455;SDS011;6800;50.940;6.940;2022-09-24T06:42:20;7.00;;;6.30;;
13455;SDS011;6800;50.940;6.940;2022-09-24T06:46:22;7.30;;;6.60;;
13455;SDS011;6800;50.940;6.940;2022-09-24T06:50:25;7.17;;;6.47;;
13455;SDS011;6800;50.940;6.940;2022-09-24T06:54:27;7.00;;;6.30;;
13455;SDS011;6800;50.940;6.940;2022-09-24T06:58:30;8.07;;;7.07;;
13455;SDS011;6800;50.940;6.940;2022-09-24T07:02:33;7.77;;;7.07;;
13455;SDS011;6800;50.940;6.940;2022-09-24T07:06:34;7.90;;;7.03;;
13455;SDS011;6800;50.940;6.940;2022-09-24T07:10:53;8.10;;;7.30;;
13455;SDS011;6800;50.940;6.940;2022-09-24T07:14:55;9.93;;;7.07;;
13455;SDS011;6800;50.940;6.940;2022-09-24T07:18:56;9.63;;;7.00;;
13455;SDS011;6800;50.940;6.940;2022-09-24T07:23:00;10.30;;;7.20;;
13455;SDS011;6800;50.940;6.940;2022-09-24T07:27:02;10.13;;;6.70;;
13455;SDS011;6800;50.940;6.940;2022-09-24T07:31:08;10.67;;;6.97;;
13455;SDS011;6800;50.940;6.940;2022-09-24T07:35:09;8.10;;;6.23;;
13455;SDS011;6800;50.940;6.940;2022-09-24T07:39:13;8.67;;;6.30;;
13455;SDS011;6800;50.940;6.940;2022-09-24T07:43:16;9.20;;;6.73;;
13455;SDS011;6800;50.940;6.940;2022-09-24T07:47:16;7.10;;;6.00;;
13455;SDS011;6800;50.940;6.940;2022-09-24T07:51:17;8.17;;;7.30;;
13455;SDS011;6800;50.940;6.940;2022-09-24T07:55:17;8.33;;;6.80;;
13455;SDS011;6800;50.940;6.940;2022-09-24T07:59:18;9.33;;;6.70;;
13455;SDS011;6800;50.940;6.940;2022-09-24T08:03:20;9.70;;;6.67;;
13455;SDS011;6800;50.940;6.940;2022-09-24T08:07:20;8.20;;;7.13;;
13455;SDS011;6800;50.940;6.940;2022-09-24T08:11:21;8.80;;;6.83;;
13455;SDS011;6800;50.940;6.940;2022-09-24T08:15:21;9.20;;;6.63;;
13455;SDS011;6800;50.940;6.940;2022-09-24T08:19:21;8.73;;;6.97;;
13455;SDS011;6800;50.940;6.940;2022-09-24T08:23:22;10.43;;;7.20;;
13455;SDS011;6800;50.940;6.940;2022-09-24T08:27:22;8.32;;;7.50;;
13455;SDS011;6800;50.940;6.940;2022-09-24T08:31:24;8.38;;;7.22;;
13455;SDS011;6800;50.940;6.940;2022-09-24T08:35:25;10.80;;;7.07;;
13455;SDS011;6800;50.940;6.940;2022-09-24T08:39:25;9.07;;;7.10;;
13455;SDS011;6800;50.940;6.940;2022-09-24T08:52:00;10.80;;;7.97;;
13455;SDS011;6800;50.940;6.940;2022-09-24T08:56:12;7.65;;;6.88;;
13455;SDS011;6800;50.940;6.940;2022-09-24T09:00:15;9.98;;;8.25;;
13455;SDS011;6800;50.940;6.940;2022-09-24T09:08:35;11.98;;;8.57;;
13455;SDS011;6800;50.940;6.940;2022-09-24T09:12:44;12.00;;;8.80;;
13455;SDS011;6800;50.940;6.940;2022-09-24T09:16:51;10.82;;;8.63;;
13455;SDS011;6800;50.940;6.940;2022-09-24T09:21:11;10.82;;;8.10;;
13455;SDS011;6800;50.940;6.940;2022-09-24T09:25:17;10.80;;;8.73;;
13455;SDS011;6800;50.940;6.940;2022-09-24T09:38:06;12.38;;;10.65;;
13455;SDS011;6800;50.940;6.940;2022-09-24T09:42:36;11.65;;;10.50;;
13455;SDS011;6800;50.940;6.940;2022-09-24T09:46:40;13.55;;;12.15;;
13455;SDS011;6800;50.940;6.940;2022-09-24T09:50:52;16.83;;;13.55;;
13455;SDS011;6800;50.940;6.940;2022-09-24T09:54:58;16.08;;;14.38;;
13455;SDS011;6800;50.940;6.940;2022-09-24T09:59:06;15.05;;;13.40;;
13455;SDS011;6800;50.940;6.940;2022-09-24T10:03:21;11.98;;;10.77;;
13455;SDS011;6800;50.940;6.940;2022-09-24T10:07:24;13.80;;;12.25;;
13455;SDS011;6800;50.940;6.940;2022-09-24T10:11:25;15.88;;;14.20;;
13455;SDS011;6800;50.940;6.940;2022-09-24T10:15:25;18.83;;;13.50;;
13455;SDS011;6800;50.940;6.940;2022-09-24T10:19:26;15.93;;;14.27;;
13455;SDS011;6800;50.940;6.940;2022-09-24T10:23:32;15.82;;;14.30;;
13455;SDS011;6800;50.940;6.940;2022-09-24T10:27:35;17.00;;;14.82;;
13455;SDS011;6800;50.940;6.940;2022-09-24T10:31:37;17.65;;;14.65;;
13455;SDS011;6800;50.940;6.940;2022-09-24T10:35:40;18.13;;;15.25;;
13455;SDS011;6800;50.940;6.940;2022-09-24T10:39:41;16.42;;;14.93;;
13455;SDS011;6800;50.940;6.940;2022-09-24T10:43:54;16.88;;;15.00;;
13455;SDS011;6800;50.940;6.940;2022-09-24T10:47:56;15.82;;;14.27;;
13455;SDS011;6800;50.940;6.940;2022-09-24T10:52:22;17.98;;;16.08;;
13455;SDS011;6800;50.940;6.940;2022-09-24T10:56:29;18.05;;;16.25;;
13455;SDS011;6800;50.940;6.940;2022-09-24T11:00:43;18.77;;;16.98;;
13455;SDS011;6800;50.940;6.940;2022-09-24T11:04:54;19.85;;;17.20;;
13455;SDS011;6800;50.940;6.940;2022-09-24T11:13:13;20.58;;;18.40;;
13455;SDS011;6800;50.940;6.940;2022-09-24T11:30:18;18.73;;;15.52;;
13455;SDS011;6800;50.940;6.940;2022-09-24T11:34:27;18.65;;;16.55;;
13455;SDS011;6800;50.940;6.940;2022-09-24T11:51:57;16.80;;;14.57;;
13455;SDS011;6800;50.940;6.940;2022-09-24T11:56:08;18.42;;;15.50;;
13455;SDS011;6800;50.940;6.940;2022-09-24T12:00:14;16.30;;;13.80;;
13455;SDS011;6800;50.940;6.940;2022-09-24T12:04:39;16.30;;;13.68;;
13455;SDS011;6800;50.940;6.940;2022-09-24T12:08:58;14.18;;;12.10;;
13455;SDS011;6800;50.940;6.940;2022-09-24T12:17:32;13.63;;;11.75;;
13455;SDS011;6800;50.940;6.940;2022-09-24T12:21:40;12.50;;;11.20;;
13455;SDS011;6800;50.940;6.940;2022-09-24T12:25:44;13.02;;;11.70;;
13455;SDS011;6800;50.940;6.940;2022-09-24T12:38:44;15.48;;;11.70;;
13455;SDS011;6800;50.940;6.940;2022-09-24T12:42:50;12.50;;;11.20;;
13455;SDS011;6800;50.940;6.940;2022-09-24T12:46:56;12.13;;;10.40;;
13455;SDS011;6800;50.940;6.940;2022-09-24T12:50:58;14.10;;;11.13;;
13455;SDS011;6800;50.940;6.940;2022-09-24T12:55:02;13.45;;;11.93;;
13455;SDS011;6800;50.940;6.940;2022-09-24T12:59:03;12.10;;;10.52;;
13455;SDS011;6800;50.940;6.940;2022-09-24T13:03:05;13.88;;;11.38;;
13455;SDS011;6800;50.940;6.940;2022-09-24T13:07:27;12.18;;;10.98;;
13455;SDS011;6800;50.940;6.940;2022-09-24T13:11:35;11.05;;;9.90;;
13455;SDS011;6800;50.940;6.940;2022-09-24T13:15:39;12.30;;;10.35;;
13455;SDS011;6800;50.940;6.940;2022-09-24T13:19:41;11.88;;;10.20;;
13455;SDS011;6800;50.940;6.940;2022-09-24T13:23:45;12.73;;;9.57;;
13455;SDS011;6800;50.940;6.940;2022-09-24T13:27:57;11.68;;;9.05;;
13455;SDS011;6800;50.940;6.940;2022-09-24T13:32:00;10.77;;;8.82;;
13455;SDS011;6800;50.940;6.940;2022-09-24T13:36:12;11.98;;;9.40;;
13455;SDS011;6800;50.940;6.940;2022-09-24T13:40:20;11.63;;;9.90;;
13455;SDS011;6800;50.940;6.940;2022-09-24T13:44:29;11.93;;;9.85;;
13455;SDS011;6800;50.940;6.940;2022-09-24T13:48:40;10.57;;;9.43;;
13455;SDS011;6800;50.940;6.940;2022-09-24T13:52:56;12.23;;;9.70;;
13455;SDS011;6800;50.940;6.940;2022-09-24T13:57:11;9.10;;;8.00;;
13455;SDS011;6800;50.940;6.940;2022-09-24T14:01:14;10.07;;;9.00;;
13455;SDS011;6800;50.940;6.940;2022-09-24T14:05:17;10.45;;;9.45;;
13455;SDS011;6800;50.940;6.940;2022-09-24T14:13:23;8.95;;;7.35;;
13455;SDS011;6800;50.940;6.940;2022-09-24T14:17:24;9.10;;;7.22;;
13455;SDS011;6800;50.940;6.940;2022-09-24T14:21:26;10.80;;;8.18;;
13455;SDS011;6800;50.940;6.940;2022-09-24T14:25:37;10.35;;;7.82;;
13455;SDS011;6800;50.940;6.940;2022-09-24T14:29:46;9.00;;;8.10;;
13455;SDS011;6800;50.940;6.940;2022-09-24T14:33:53;8.35;;;7.55;;
13455;SDS011;6800;50.940;6.940;2022-09-24T14:37:54;10.40;;;8.73;;
13455;SDS011;6800;50.940;6.940;2022-09-24T14:41:58;11.00;;;9.02;;
13455;SDS011;6800;50.940;6.940;2022-09-24T14:46:00;11.45;;;9.20;;
13455;SDS011;6800;50.940;6.940;2022-09-24T14:54:45;10.05;;;9.05;;
13455;SDS011;6800;50.940;6.940;2022-09-24T14:58:46;11.38;;;9.82;;
13455;SDS011;6800;50.940;6.940;2022-09-24T15:02:47;11.85;;;9.45;;
13455;SDS011;6800;50.940;6.940;2022-09-24T15:06:51;11.00;;;9.18;;
13455;SDS011;6800;50.940;6.940;2022-09-24T15:10:54;10.05;;;9.05;;
13455;SDS011;6800;50.940;6.940;2022-09-24T15:14:58;10.45;;;9.35;;
13455;SDS011;6800;50.940;6.940;2022-09-24T15:23:06;10.02;;;8.85;;
13455;SDS011;6800;50.940;6.940;2022-09-24T15:31:43;11.23;;;8.93;;
13455;SDS011;6800;50.940;6.940;2022-09-24T15:35:44;10.85;;;8.68;;
13455;SDS011;6800;50.940;6.940;2022-09-24T15:39:45;11.50;;;9.90;;
13455;SDS011;6800;50.940;6.940;2022-09-24T15:43:49;11.70;;;9.50;;
13455;SDS011;6800;50.940;6.940;2022-09-24T15:47:49;10.90;;;9.57;;
13455;SDS011;6800;50.940;6.940;2022-09-24T15:51:51;12.18;;;9.40;;
13455;SDS011;6800;50.940;6.940;2022-09-24T15:55:54;10.02;;;9.10;;
13455;SDS011;6800;50.940;6.940;2022-09-24T15:59:57;11.65;;;10.45;;
13455;SDS011;6800;50.940;6.940;2022-09-24T16:03:58;11.15;;;9.75;;
13455;SDS011;6800;50.940;6.940;2022-09-24T16:07:58;11.27;;;9.68;;
13455;SDS011;6800;50.940;6.940;2022-09-24T16:11:58;11.27;;;9.98;;
13455;SDS011;6800;50.940;6.940;2022-09-24T16:15:59;11.90;;;10.55;;
13455;SDS011;6800;50.940;6.940;2022-09-24T16:20:00;12.90;;;10.90;;
13455;SDS011;6800;50.940;6.940;2022-09-24T16:24:01;14.30;;;10.70;;
13455;SDS011;6800;50.940;6.940;2022-09-24T16:28:02;12.18;;;10.88;;
13455;SDS011;6800;50.940;6.940;2022-09-24T16:32:02;12.32;;;10.82;;
13455;SDS011;6800;50.940;6.940;2022-09-24T16:36:03;14.73;;;12.30;;
13455;SDS011;6800;50.940;6.940;2022-09-24T16:40:07;14.00;;;11.82;;
13455;SDS011;6800;50.940;6.940;2022-09-24T16:44:09;14.20;;;11.73;;
13455;SDS011;6800;50.940;6.940;2022-09-24T16:48:13;13.88;;;12.30;;
13455;SDS011;6800;50.940;6.940;2022-09-24T16:52:14;14.25;;;12.13;;
13455;SDS011;6800;50.940;6.940;2022-09-24T16:56:15;12.63;;;11.35;;
13455;SDS011;6800;50.940;6.940;2022-09-24T17:00:16;13.10;;;11.73;;
13455;SDS011;6800;50.940;6.940;2022-09-24T17:04:17;14.20;;;12.75;;
13455;SDS011;6800;50.940;6.940;2022-09-24T17:08:17;13.10;;;11.52;;
13455;SDS011;6800;50.940;6.940;2022-09-24T17:12:17;13.43;;;11.48;;
13455;SDS011;6800;50.940;6.940;2022-09-24T17:16:18;11.38;;;10.27;;
13455;SDS011;6800;50.940;6.940;2022-09-24T17:20:18;12.20;;;10.90;;
13455;SDS011;6800;50.940;6.940;2022-09-24T17:24:18;14.38;;;11.98;;
13455;SDS011;6800;50.940;6.940;2022-09-24T17:28:19;12.50;;;10.98;;
13455;SDS011;6800;50.940;6.940;2022-09-24T17:32:19;12.20;;;10.90;;
13455;SDS011;6800;50.940;6.940;2022-09-24T17:36:20;13.23;;;11.88;;
13455;SDS011;6800;50.940;6.940;2022-09-24T17:40:20;13.85;;;12.02;;
13455;SDS011;6800;50.940;6.940;2022-09-24T17:44:21;14.90;;;12.95;;
13455;SDS011;6800;50.940;6.940;2022-09-24T17:48:21;13.27;;;11.82;;
13455;SDS011;6800;50.940;6.940;2022-09-24T17:52:22;14.00;;;12.23;;
13455;SDS011;6800;50.940;6.940;2022-09-24T17:56:24;13.88;;;12.40;;
13455;SDS011;6800;50.940;6.940;2022-09-24T18:00:26;16.15;;;12.90;;
13455;SDS011;6800;50.940;6.940;2022-09-24T18:04:26;13.27;;;11.98;;
13455;SDS011;6800;50.940;6.940;2022-09-24T18:08:30;13.13;;;11.77;;
13455;SDS011;6800;50.940;6.940;2022-09-24T18:12:30;13.77;;;12.30;;
13455;SDS011;6800;50.940;6.940;2022-09-24T18:16:31;13.75;;;12.18;;
13455;SDS011;6800;50.940;6.940;2022-09-24T18:20:32;13.40;;;12.10;;
13455;SDS011;6800;50.940;6.940;2022-09-24T18:24:32;13.57;;;11.82;;
13455;SDS011;6800;50.940;6.940;2022-09-24T18:28:33;13.60;;;12.20;;
13455;SDS011;6800;50.940;6.940;2022-09-24T18:32:33;15.13;;;12.75;;
13455;SDS011;6800;50.940;6.940;2022-09-24T18:36:37;14.02;;;12.63;;
13455;SDS011;6800;50.940;6.940;2022-09-24T18:40:39;14.57;;;13.10;;
13455;SDS011;6800;50.940;6.940;2022-09-24T18:44:39;14.80;;;13.30;;
13455;SDS011;6800;50.940;6.940;2022-09-24T18:48:40;17.00;;;14.53;;
13455;SDS011;6800;50.940;6.940;2022-09-24T18:52:41;16.80;;;15.10;;
13455;SDS011;6800;50.940;6.940;2022-09-24T18:56:42;14.88;;;13.43;;
13455;SDS011;6800;50.940;6.940;2022-09-24T19:00:42;15.55;;;13.95;;
13455;SDS011;6800;50.940;6.940;2022-09-24T19:04:49;18.98;;;16.77;;
13455;SDS011;6800;50.940;6.940;2022-09-24T19:08:50;17.30;;;14.98;;
13455;SDS011;6800;50.940;6.940;2022-09-24T19:12:50;16.33;;;14.18;;
13455;SDS011;6800;50.940;6.940;2022-09-24T19:20:56;16.40;;;14.80;;
13455;SDS011;6800;50.940;6.940;2022-09-24T19:24:56;15.83;;;14.23;;
13455;SDS011;6800;50.940;6.940;2022-09-24T19:28:57;17.50;;;15.75;;
13455;SDS011;6800;50.940;6.940;2022-09-24T19:32:57;18.20;;;16.33;;
13455;SDS011;6800;50.940;6.940;2022-09-24T19:36:58;22.27;;;18.70;;
13455;SDS011;6800;50.940;6.940;2022-09-24T19:41:03;22.37;;;20.07;;
13455;SDS011;6800;50.940;6.940;2022-09-24T19:45:06;22.97;;;20.77;;
13455;SDS011;6800;50.940;6.940;2022-09-24T19:49:06;24.00;;;21.50;;
13455;SDS011;6800;50.940;6.940;2022-09-24T19:57:12;25.37;;;22.73;;
13455;SDS011;6800;50.940;6.940;2022-09-24T20:01:12;25.63;;;23.03;;
13455;SDS011;6800;50.940;6.940;2022-09-24T20:05:13;24.67;;;22.17;;
13455;SDS011;6800;50.940;6.940;2022-09-24T20:09:13;27.87;;;24.90;;
13455;SDS011;6800;50.940;6.940;2022-09-24T20:13:13;28.53;;;25.63;;
13455;SDS011;6800;50.940;6.940;2022-09-24T20:17:14;26.13;;;23.52;;
13455;SDS011;6800;50.940;6.940;2022-09-24T20:21:15;26.90;;;24.10;;
13455;SDS011;6800;50.940;6.940;2022-09-24T20:25:16;28.30;;;25.43;;
13455;SDS011;6800;50.940;6.940;2022-09-24T20:29:17;27.53;;;24.63;;
13455;SDS011;6800;50.940;6.940;2022-09-24T20:33:18;26.47;;;23.67;;
13455;SDS011;6800;50.940;6.940;2022-09-24T20:37:19;26.70;;;24.10;;
13455;SDS011;6800;50.940;6.940;2022-09-24T20:41:20;27.27;;;24.47;;
13455;SDS011;6800;50.940;6.940;2022-09-24T20:45:23;26.37;;;23.60;;
13455;SDS011;6800;50.940;6.940;2022-09-24T20:49:23;25.40;;;22.90;;
13455;SDS011;6800;50.940;6.940;2022-09-24T20:53:24;24.90;;;22.33;;
13455;SDS011;6800;50.940;6.940;2022-09-24T20:57:24;22.80;;;20.50;;
13455;SDS011;6800;50.940;6.940;2022-09-24T21:01:26;22.23;;;20.03;;
13455;SDS011;6800;50.940;6.940;2022-09-24T21:05:26;20.80;;;18.70;;
13455;SDS011;6800;50.940;6.940;2022-09-24T21:09:30;23.13;;;20.70;;
13455;SDS011;6800;50.940;6.940;2022-09-24T21:13:31;21.67;;;19.57;;
13455;SDS011;6800;50.940;6.940;2022-09-24T21:17:32;21.47;;;19.37;;
13455;SDS011;6800;50.940;6.940;2022-09-24T21:21:34;22.63;;;20.43;;
13455;SDS011;6800;50.940;6.940;2022-09-24T21:25:37;25.07;;;20.20;;
13455;SDS011;6800;50.940;6.940;2022-09-24T21:29:38;21.10;;;19.00;;
13455;SDS011;6800;50.940;6.940;2022-09-24T21:33:38;20.53;;;18.43;;
13455;SDS011;6800;50.940;6.940;2022-09-24T21:37:38;21.70;;;19.50;;
13455;SDS011;6800;50.940;6.940;2022-09-24T21:41:39;22.53;;;20.33;;
13455;SDS011;6800;50.940;6.940;2022-09-24T21:45:39;20.50;;;18.40;;
13455;SDS011;6800;50.940;6.940;2022-09-24T21:49:39;21.87;;;19.77;;
13455;SDS011;6800;50.940;6.940;2022-09-24T21:53:40;20.80;;;18.80;;
13455;SDS011;6800;50.940;6.940;2022-09-24T21:57:41;21.07;;;18.93;;
13455;SDS011;6800;50.940;6.940;2022-09-24T22:01:41;22.00;;;19.23;;
13455;SDS011;6800;50.940;6.940;2022-09-24T22:05:41;21.13;;;18.83;;
13455;SDS011;6800;50.940;6.940;2022-09-24T22:09:42;24.10;;;21.37;;
13455;SDS011;6800;50.940;6.940;2022-09-24T22:13:46;25.77;;;22.03;;
13455;SDS011;6800;50.940;6.940;2022-09-24T22:17:55;24.60;;;22.00;;
13455;SDS011;6800;50.940;6.940;2022-09-24T22:26:27;24.67;;;21.97;;
13455;SDS011;6800;50.940;6.940;2022-09-24T22:30:28;23.43;;;21.13;;
13455;SDS011;6800;50.940;6.940;2022-09-24T22:34:30;25.80;;;23.10;;
13455;SDS011;6800;50.940;6.940;2022-09-24T22:38:56;26.37;;;23.67;;
13455;SDS011;6800;50.940;6.940;2022-09-24T22:42:58;28.33;;;25.47;;
13455;SDS011;6800;50.940;6.940;2022-09-24T22:46:58;24.53;;;21.93;;
13455;SDS011;6800;50.940;6.940;2022-09-24T22:50:59;25.27;;;22.60;;
13455;SDS011;6800;50.940;6.940;2022-09-24T22:54:59;26.67;;;23.77;;
13455;SDS011;6800;50.940;6.940;2022-09-24T22:58:59;26.60;;;23.80;;
13455;SDS011;6800;50.940;6.940;2022-09-24T23:03:00;27.40;;;24.60;;
13455;SDS011;6800;50.940;6.940;2022-09-24T23:07:01;28.07;;;25.03;;
13455;SDS011;6800;50.940;6.940;2022-09-24T23:15:06;28.30;;;25.43;;
13455;SDS011;6800;50.940;6.940;2022-09-24T23:19:11;30.80;;;27.60;;
13455;SDS011;6800;50.940;6.940;2022-09-24T23:23:21;30.53;;;27.23;;
13455;SDS011;6800;50.940;6.940;2022-09-24T23:27:21;28.13;;;24.85;;
13455;SDS011;6800;50.940;6.940;2022-09-24T23:31:23;27.57;;;24.57;;
13455;SDS011;6800;50.940;6.940;2022-09-24T23:35:24;29.90;;;25.90;;
13455;SDS011;6800;50.940;6.940;2022-09-24T23:39:25;28.27;;;25.30;;
13455;SDS011;6800;50.940;6.940;2022-09-24T23:43:25;29.27;;;26.27;;
13455;SDS011;6800;50.940;6.940;2022-09-24T23:47:26;31.97;;;28.00;;
13455;SDS011;6800;50.940;6.940;2022-09-24T23:51:27;28.87;;;25.87;;
13455;SDS011;6800;50.940;6.940;2022-09-24T23:55:27;30.50;;;27.27;;
13455;SDS011;6800;50.940;6.940;2022-09-24T23:59:27;33.63;;;29.27;;
